KVAD/VAD METAR and TAF weather

Enter ICAO airport designator
Station Type Date Time Source
KVAD METAR 2020/01/28 20:56 UTC NOAA

KVAD 282056Z AUTO 36007KT 10SM CLR 18/M01 A2995 RMK AO2 SLP144 T01751012 56017 $


Station Type Date Time Source
KVAD Decoded METAR 2020/01/28 20:56 UTC NOAA

Moody Air Force Base, GA, United States (KVAD) 30-58N 083-12W 71M
Jan 28, 2020 - 03:56 PM EST / 2020.01.28 2056 UTC
Wind: from the N (360 degrees) at 8 MPH (7 KT):0
Visibility: 10 mile(s):0
Sky conditions: clear
Temperature: 63.5 F (17.5 C)
Dew Point: 29.8 F (-1.2 C)
Relative Humidity: 27%
Pressure (altimeter): 29.95 in. Hg (1014 hPa)
Pressure tendency: 0.05 inches (1.7 hPa) lower than three hours ago
ob: KVAD 282056Z AUTO 36007KT 10SM CLR 18/M01 A2995 RMK AO2 SLP144 T01751012 56017
cycle: 21

Station Type Date Time Source
KVAD TAF 2020/01/28 17:07 UTC NOAA

TAF KVAD 281700Z 2817/2923 01009KT 9999 SKC QNH2995INS
BECMG 2914/2915 09009KT 9999 SCT080 QNH2992INS
BECMG 2920/2921 11009KT 8000 -SHRA BKN035 QNH2990INS TX18/2821Z TN04/2909Z

Example: see airport list